Time;durP1;ratioP1;P1;durP2;ratioP2;P2;SDS_P1;SDS_P2;PMS_P1;PMS_P2;Temp;Humidity;BMP_temperature;BMP_pressure;BME280_temperature;BME280_humidity;BME280_pressure;Samples;Min_cycle;Max_cycle;Signal;HPM_P1;HPM_P2
2023/05/19 00:00:56;;;;;;;11.37;6.33;;;;;;;12.69;100.00;95377.25;4997958;28;20303;-82
2023/05/19 00:03:22;;;;;;;13.03;6.23;;;;;;;12.76;100.00;95378.88;5030901;28;20225;-81
2023/05/19 00:05:48;;;;;;;10.27;6.70;;;;;;;12.74;100.00;95372.22;5020445;28;20241;-83
2023/05/19 00:08:16;;;;;;;9.23;6.53;;;;;;;12.74;100.00;95370.41;5032425;28;20237;-80
2023/05/19 00:10:42;;;;;;;10.27;6.60;;;;;;;12.76;100.00;95375.44;5018259;28;20259;-79
2023/05/19 00:13:08;;;;;;;10.00;6.20;;;;;;;12.69;100.00;95370.19;5030148;28;20225;-81
2023/05/19 00:15:34;;;;;;;12.10;6.70;;;;;;;12.71;100.00;95365.53;5032341;28;20226;-83
2023/05/19 00:17:59;;;;;;;9.90;6.50;;;;;;;12.76;100.00;95368.38;5026613;28;20367;-80
2023/05/19 00:20:25;;;;;;;10.27;6.30;;;;;;;12.79;100.00;95362.72;5021788;28;20253;-82
2023/05/19 00:22:50;;;;;;;9.10;5.97;;;;;;;12.76;100.00;95363.13;5018357;28;20339;-81
2023/05/19 00:25:16;;;;;;;9.83;6.17;;;;;;;12.71;100.00;95355.03;5029810;28;20237;-81
2023/05/19 00:27:41;;;;;;;9.40;6.10;;;;;;;12.69;100.00;95358.88;5033049;28;20226;-81
2023/05/19 00:30:07;;;;;;;10.43;6.20;;;;;;;12.72;100.00;95356.66;5017153;28;20256;-81
2023/05/19 00:32:33;;;;;;;12.17;6.37;;;;;;;12.75;100.00;95358.09;5032363;28;20226;-82
2023/05/19 00:34:58;;;;;;;11.27;6.23;;;;;;;12.76;100.00;95363.13;5030812;28;20226;-83
2023/05/19 00:37:25;;;;;;;11.00;6.53;;;;;;;12.81;100.00;95359.88;5024259;28;20226;-82
2023/05/19 00:39:50;;;;;;;12.27;6.57;;;;;;;12.76;100.00;95359.69;5013115;28;20728;-80
2023/05/19 00:42:16;;;;;;;12.77;6.83;;;;;;;12.66;100.00;95354.00;5030523;28;20699;-80
2023/05/19 00:44:41;;;;;;;11.50;6.93;;;;;;;12.73;100.00;95354.81;5034384;28;20766;-79
2023/05/19 00:47:07;;;;;;;10.23;6.87;;;;;;;12.63;100.00;95349.97;5034684;28;20973;-80
2023/05/19 00:49:32;;;;;;;13.10;6.73;;;;;;;12.62;100.00;95352.81;5041631;28;20226;-82
2023/05/19 00:51:59;;;;;;;11.13;6.60;;;;;;;12.69;100.00;95351.00;5015259;28;20655;-81
2023/05/19 00:54:24;;;;;;;11.30;6.63;;;;;;;12.68;100.00;95344.13;5036767;28;20222;-81
2023/05/19 00:56:50;;;;;;;13.07;7.40;;;;;;;12.55;100.00;95339.69;5013318;28;20304;-80
2023/05/19 00:59:15;;;;;;;10.33;7.27;;;;;;;12.59;100.00;95347.94;5018353;28;20233;-81
2023/05/19 01:01:41;;;;;;;12.10;7.20;;;;;;;12.55;100.00;95354.63;5040755;28;20623;-77
2023/05/19 01:04:08;;;;;;;11.33;7.63;;;;;;;12.53;100.00;95356.66;5028247;28;20233;-71
2023/05/19 01:06:37;;;;;;;10.73;7.27;;;;;;;12.51;100.00;95350.78;5031494;28;20245;-71
2023/05/19 01:09:02;;;;;;;13.20;8.20;;;;;;;12.46;100.00;95347.94;5030110;28;20230;-72
2023/05/19 01:11:28;;;;;;;12.70;7.67;;;;;;;12.50;100.00;95351.78;5009592;28;20237;-71
2023/05/19 01:13:54;;;;;;;15.47;7.93;;;;;;;12.52;100.00;95349.75;4997846;28;20229;-73
2023/05/19 01:16:39;;;;;;;14.17;8.10;;;;;;;12.46;100.00;95355.84;5017316;28;20257;-71
2023/05/19 01:19:24;;;;;;;11.17;7.80;;;;;;;12.45;100.00;95355.00;5023499;28;20246;-72
2023/05/19 01:22:11;;;;;;;14.03;8.23;;;;;;;12.42;100.00;95354.63;5031315;28;20317;-73
2023/05/19 01:25:16;;;;;;;13.83;8.20;;;;;;;12.45;100.00;95346.31;5018402;28;20237;-72
2023/05/19 01:27:54;;;;;;;13.37;8.87;;;;;;;12.29;100.00;95351.97;5033540;28;20225;-72
2023/05/19 01:30:24;;;;;;;14.07;9.30;;;;;;;12.27;100.00;95353.97;5014691;28;20643;-72
2023/05/19 01:32:52;;;;;;;15.33;8.93;;;;;;;12.21;100.00;95350.31;5039378;28;20884;-72
2023/05/19 01:35:17;;;;;;;15.17;9.00;;;;;;;12.27;100.00;95348.72;5030534;28;20233;-72
2023/05/19 01:37:45;;;;;;;16.13;9.73;;;;;;;12.26;100.00;95358.41;5007158;28;20315;-72
2023/05/19 01:40:11;;;;;;;18.70;9.70;;;;;;;12.23;100.00;95355.41;5035150;28;20636;-72
2023/05/19 01:42:38;;;;;;;15.50;9.63;;;;;;;12.18;100.00;95351.53;5028695;28;20225;-71
2023/05/19 01:45:10;;;;;;;14.93;9.37;;;;;;;12.22;100.00;95356.38;5030704;28;20223;-71
2023/05/19 01:47:40;;;;;;;16.70;9.40;;;;;;;12.23;100.00;95355.41;5019549;28;20229;-72
2023/05/19 01:50:06;;;;;;;14.17;9.40;;;;;;;12.15;100.00;95359.00;5012201;28;20252;-72
2023/05/19 01:52:31;;;;;;;18.57;9.20;;;;;;;12.11;100.00;95355.94;5032288;28;20711;-71
2023/05/19 01:54:57;;;;;;;15.30;9.60;;;;;;;12.16;100.00;95357.97;5009979;28;20614;-71
2023/05/19 01:57:54;;;;;;;13.77;8.93;;;;;;;12.16;100.00;95358.78;5032977;28;20226;-72
2023/05/19 02:00:32;;;;;;;15.53;9.40;;;;;;;12.14;100.00;95358.19;5029944;28;20251;-72
2023/05/19 02:03:06;;;;;;;15.73;9.00;;;;;;;12.18;100.00;95348.91;5027738;28;20318;-72
2023/05/19 02:05:37;;;;;;;14.80;9.13;;;;;;;12.19;100.00;95362.84;5016754;28;20279;-72
2023/05/19 02:09:01;;;;;;;20.90;9.40;;;;;;;12.24;100.00;95363.06;5032324;28;20237;-72
2023/05/19 02:11:37;;;;;;;15.53;8.97;;;;;;;12.11;100.00;95366.44;5032982;28;20723;-71
2023/05/19 02:14:10;;;;;;;14.83;9.30;;;;;;;12.21;100.00;95360.00;5039677;28;20348;-72
2023/05/19 02:16:36;;;;;;;15.13;9.60;;;;;;;12.14;100.00;95357.38;4998166;28;20253;-72
2023/05/19 02:19:01;;;;;;;14.07;9.20;;;;;;;12.21;100.00;95363.44;5034180;28;20312;-72
2023/05/19 02:21:27;;;;;;;17.93;9.23;;;;;;;12.19;100.00;95365.47;5028966;28;20244;-72
2023/05/19 02:23:52;;;;;;;19.00;10.13;;;;;;;12.16;100.00;95361.41;5016042;28;20226;-71
2023/05/19 02:26:18;;;;;;;15.57;9.80;;;;;;;12.20;100.00;95353.16;5033297;28;20237;-73
2023/05/19 02:28:43;;;;;;;19.43;9.87;;;;;;;12.09;100.00;95365.84;4997204;28;20233;-72
2023/05/19 02:31:09;;;;;;;17.70;9.70;;;;;;;12.08;100.00;95361.59;5012520;28;20268;-72
2023/05/19 02:33:35;;;;;;;21.83;10.03;;;;;;;12.04;100.00;95359.56;5023571;28;20233;-72
2023/05/19 02:36:00;;;;;;;16.00;9.90;;;;;;;11.97;100.00;95356.09;5020763;28;20236;-73
2023/05/19 02:38:26;;;;;;;17.93;10.17;;;;;;;11.98;100.00;95363.81;5033835;28;20229;-72
2023/05/19 02:40:51;;;;;;;17.57;10.47;;;;;;;12.05;100.00;95366.44;5026231;28;20307;-74
2023/05/19 02:43:17;;;;;;;20.33;10.37;;;;;;;11.87;100.00;95372.22;5014029;28;20237;-71
2023/05/19 02:45:43;;;;;;;19.03;10.30;;;;;;;11.97;100.00;95370.03;5015289;28;20321;-72
2023/05/19 02:48:08;;;;;;;19.20;10.23;;;;;;;12.00;100.00;95371.47;5015874;28;20237;-72
2023/05/19 02:50:34;;;;;;;16.73;9.97;;;;;;;11.96;100.00;95365.81;5028135;28;20249;-72
2023/05/19 02:52:59;;;;;;;18.67;10.33;;;;;;;12.03;100.00;95365.81;5014900;28;20938;-72
2023/05/19 02:55:25;;;;;;;20.90;10.70;;;;;;;12.01;100.00;95368.63;5014252;28;20793;-73
2023/05/19 02:57:51;;;;;;;18.67;10.30;;;;;;;12.05;100.00;95374.31;4996057;28;20349;-70
2023/05/19 03:00:16;;;;;;;18.63;10.00;;;;;;;12.00;100.00;95374.91;5026244;28;20235;-72
2023/05/19 03:02:42;;;;;;;17.07;10.13;;;;;;;12.09;100.00;95380.78;5013737;28;20261;-72
2023/05/19 03:05:09;;;;;;;17.73;10.10;;;;;;;12.03;100.00;95377.13;4997237;28;20305;-72
2023/05/19 03:07:34;;;;;;;15.73;9.83;;;;;;;12.04;100.00;95377.91;5013360;28;20793;-72
2023/05/19 03:10:02;;;;;;;18.67;10.00;;;;;;;11.92;100.00;95385.56;5014224;28;20254;-73
2023/05/19 03:12:28;;;;;;;16.53;9.43;;;;;;;11.93;100.00;95381.13;5014514;28;20230;-72
2023/05/19 03:14:54;;;;;;;16.57;10.20;;;;;;;11.88;100.00;95378.28;5004457;28;20288;-73
2023/05/19 03:17:19;;;;;;;17.30;10.23;;;;;;;11.87;100.00;95381.91;5007406;28;20218;-73
2023/05/19 03:19:45;;;;;;;17.73;10.60;;;;;;;11.86;100.00;95380.28;5012338;28;20233;-73
2023/05/19 03:22:10;;;;;;;15.87;10.17;;;;;;;11.96;100.00;95378.94;5022700;28;20725;-72
2023/05/19 03:24:36;;;;;;;17.40;10.33;;;;;;;12.00;100.00;95384.56;5013849;28;20793;-71
2023/05/19 03:27:04;;;;;;;18.60;9.83;;;;;;;12.02;100.00;95383.38;4999751;28;20231;-72
2023/05/19 03:29:30;;;;;;;18.30;10.70;;;;;;;12.04;100.00;95383.16;5011457;28;20237;-73
2023/05/19 03:31:55;;;;;;;22.53;11.00;;;;;;;11.97;100.00;95385.78;4989999;28;20293;-73
2023/05/19 03:34:21;;;;;;;18.57;10.70;;;;;;;12.06;100.00;95381.97;5030706;28;20227;-73
2023/05/19 03:36:48;;;;;;;20.93;10.80;;;;;;;12.05;100.00;95384.81;5028916;28;20297;-71
2023/05/19 03:39:14;;;;;;;19.33;10.77;;;;;;;12.06;100.00;95381.19;5015498;28;20741;-71
2023/05/19 03:41:40;;;;;;;15.93;10.37;;;;;;;12.06;100.00;95386.44;5014039;28;20227;-72
2023/05/19 03:44:05;;;;;;;19.37;11.10;;;;;;;11.99;100.00;95382.94;4979024;28;20234;-72
2023/05/19 03:46:31;;;;;;;18.27;10.67;;;;;;;12.06;100.00;95387.22;5011026;28;20234;-72
2023/05/19 03:48:56;;;;;;;19.00;11.00;;;;;;;11.93;100.00;95376.69;5009952;28;20234;-73
2023/05/19 03:51:22;;;;;;;20.20;10.97;;;;;;;12.04;100.00;95389.22;5013517;28;20231;-72
2023/05/19 03:53:47;;;;;;;17.63;11.07;;;;;;;12.13;100.00;95395.13;5013341;28;20300;-72
2023/05/19 03:56:13;;;;;;;19.43;11.13;;;;;;;12.16;100.00;95400.78;4994474;28;20245;-71
2023/05/19 03:58:42;;;;;;;18.37;10.70;;;;;;;12.27;100.00;95396.78;4993701;28;20249;-72
2023/05/19 04:01:07;;;;;;;19.10;10.77;;;;;;;12.26;100.00;95391.72;5013579;28;20289;-71
2023/05/19 04:03:33;;;;;;;20.67;11.50;;;;;;;12.32;100.00;95390.94;5028651;28;20711;-73
2023/05/19 04:05:59;;;;;;;17.60;11.00;;;;;;;12.37;100.00;95402.44;4981576;28;20230;-72
2023/05/19 04:08:24;;;;;;;16.97;10.67;;;;;;;12.41;100.00;95397.63;5013678;28;20234;-72
2023/05/19 04:10:50;;;;;;;18.60;10.47;;;;;;;12.37;100.00;95399.03;5013035;28;20230;-73
2023/05/19 04:13:15;;;;;;;18.50;10.30;;;;;;;12.48;100.00;95399.25;5012715;28;20239;-71
2023/05/19 04:15:41;;;;;;;21.77;10.80;;;;;;;12.42;100.00;95400.03;5011341;28;20242;-72
2023/05/19 04:18:06;;;;;;;19.67;11.30;;;;;;;12.58;100.00;95404.13;5011045;28;20219;-72
2023/05/19 04:20:32;;;;;;;19.40;10.97;;;;;;;12.65;100.00;95407.56;5013174;28;20757;-73
2023/05/19 04:22:57;;;;;;;17.40;10.37;;;;;;;12.74;100.00;95406.34;4996561;28;20722;-73
2023/05/19 04:25:24;;;;;;;21.90;11.23;;;;;;;12.67;100.00;95414.22;5013926;28;20242;-72
2023/05/19 04:27:49;;;;;;;19.53;10.70;;;;;;;12.77;100.00;95417.28;5012958;28;20245;-71
2023/05/19 04:30:20;;;;;;;21.63;10.83;;;;;;;12.89;100.00;95414.88;5004177;28;20239;-72
2023/05/19 04:32:49;;;;;;;20.23;10.80;;;;;;;12.89;100.00;95417.50;5011068;28;20234;-72
2023/05/19 04:35:16;;;;;;;17.23;10.60;;;;;;;12.87;100.00;95419.53;5002343;28;20245;-72
2023/05/19 04:37:44;;;;;;;19.30;10.77;;;;;;;12.88;100.00;95425.56;5004693;28;20268;-72
2023/05/19 04:40:11;;;;;;;23.17;10.87;;;;;;;12.91;100.00;95427.78;4993075;28;20234;-72
2023/05/19 04:42:40;;;;;;;19.00;10.63;;;;;;;12.92;100.00;95426.78;5009841;28;20739;-71
2023/05/19 04:45:07;;;;;;;18.60;11.13;;;;;;;13.11;100.00;95426.03;5012227;28;20226;-71
2023/05/19 04:47:35;;;;;;;19.67;11.20;;;;;;;13.08;100.00;95424.59;5010126;28;20509;-72
2023/05/19 04:50:01;;;;;;;17.57;10.70;;;;;;;13.01;99.97;95422.94;4985151;28;20293;-72
2023/05/19 04:52:27;;;;;;;20.53;11.37;;;;;;;13.02;100.00;95428.00;4996249;28;20309;-74
2023/05/19 04:54:53;;;;;;;20.67;11.50;;;;;;;13.11;100.00;95423.38;5005702;28;20462;-73
2023/05/19 04:57:18;;;;;;;18.90;10.97;;;;;;;13.27;100.00;95421.16;5012809;28;20238;-72
2023/05/19 04:59:44;;;;;;;22.27;11.53;;;;;;;13.35;99.36;95420.94;4997590;28;20237;-72
2023/05/19 05:02:10;;;;;;;17.73;10.43;;;;;;;13.48;99.37;95425.38;5007224;28;20230;-72
2023/05/19 05:04:36;;;;;;;20.03;11.00;;;;;;;13.61;98.42;95433.25;5009541;28;20292;-73
2023/05/19 05:07:01;;;;;;;19.23;11.00;;;;;;;14.11;96.93;95429.84;5010784;28;20229;-71
2023/05/19 05:09:27;;;;;;;19.00;10.37;;;;;;;14.55;94.50;95434.34;5013329;28;20237;-72
2023/05/19 05:11:53;;;;;;;18.17;10.80;;;;;;;14.42;94.31;95434.44;5012006;28;20235;-73
2023/05/19 05:14:18;;;;;;;16.60;10.47;;;;;;;14.25;96.04;95433.25;5012883;28;20243;-72
2023/05/19 05:16:44;;;;;;;20.07;10.53;;;;;;;14.70;94.28;95432.22;5009279;28;20242;-71
2023/05/19 05:19:10;;;;;;;20.90;11.10;;;;;;;15.19;90.93;95426.19;4981903;28;21135;-72
2023/05/19 05:21:36;;;;;;;16.67;9.90;;;;;;;14.95;92.30;95426.19;5025878;28;20231;-73
2023/05/19 05:24:01;;;;;;;19.23;10.50;;;;;;;15.00;92.30;95421.09;5001093;28;20234;-72
2023/05/19 05:26:29;;;;;;;19.27;10.17;;;;;;;15.32;90.56;95425.28;5009036;28;20233;-73
2023/05/19 05:28:54;;;;;;;16.63;10.43;;;;;;;15.84;87.50;95424.00;4993384;28;20313;-74
2023/05/19 05:31:20;;;;;;;16.93;10.60;;;;;;;16.64;85.19;95422.84;5020381;28;20226;-73
2023/05/19 05:33:45;;;;;;;18.30;10.77;;;;;;;16.02;87.15;95413.44;5012442;28;20261;-72
2023/05/19 05:36:12;;;;;;;20.30;10.90;;;;;;;15.64;88.38;95424.22;5008109;28;20754;-73
2023/05/19 05:38:37;;;;;;;18.33;10.80;;;;;;;15.62;88.65;95428.88;5011210;28;20350;-73
2023/05/19 05:41:03;;;;;;;20.13;10.67;;;;;;;15.47;89.63;95429.25;5009178;28;20239;-73
2023/05/19 05:43:29;;;;;;;18.07;10.60;;;;;;;15.61;89.47;95435.19;5006780;28;20368;-73
2023/05/19 05:45:55;;;;;;;17.87;10.73;;;;;;;15.74;89.47;95431.63;5011244;28;20242;-73
2023/05/19 05:48:21;;;;;;;19.37;10.63;;;;;;;15.69;88.75;95428.84;5011406;28;20315;-71
2023/05/19 05:50:47;;;;;;;20.53;10.50;;;;;;;15.65;89.41;95431.09;4995288;28;20811;-73
2023/05/19 05:53:19;;;;;;;18.37;10.73;;;;;;;16.03;87.94;95431.72;5009048;28;20281;-73
2023/05/19 05:55:46;;;;;;;18.17;10.37;;;;;;;15.97;87.62;95431.78;5009972;28;20288;-72
2023/05/19 05:58:13;;;;;;;18.93;10.17;;;;;;;16.11;88.01;95441.97;4993199;28;20237;-72
2023/05/19 06:00:42;;;;;;;18.67;10.40;;;;;;;16.15;87.87;95450.25;5020939;28;20317;-73
2023/05/19 06:03:08;;;;;;;17.10;10.50;;;;;;;16.14;87.99;95452.09;4994916;28;20300;-72
2023/05/19 06:05:34;;;;;;;17.73;10.20;;;;;;;16.33;87.40;95452.09;4992776;28;20253;-72
2023/05/19 06:08:00;;;;;;;18.67;9.57;;;;;;;16.38;86.74;95453.06;4999090;28;20234;-73
2023/05/19 06:10:26;;;;;;;18.67;10.13;;;;;;;16.22;86.32;95452.81;5024990;28;20242;-74
2023/05/19 06:12:52;;;;;;;17.00;9.10;;;;;;;16.36;85.80;95446.38;5003852;28;20226;-73
2023/05/19 06:15:17;;;;;;;14.43;8.97;;;;;;;16.45;86.35;95455.59;5020625;28;20234;-74
2023/05/19 06:17:43;;;;;;;16.10;8.60;;;;;;;16.34;84.46;95453.69;4984364;28;20250;-73
2023/05/19 06:20:09;;;;;;;17.57;9.20;;;;;;;16.36;86.92;95455.09;5015781;28;20287;-73
2023/05/19 06:22:34;;;;;;;17.47;9.50;;;;;;;16.39;86.74;95449.38;5025032;28;20313;-72
2023/05/19 06:25:00;;;;;;;17.17;9.37;;;;;;;16.39;85.83;95454.66;5025444;28;20632;-72
2023/05/19 06:27:25;;;;;;;13.70;8.70;;;;;;;16.43;84.96;95449.75;5015708;28;20237;-73
2023/05/19 06:29:51;;;;;;;13.17;8.20;;;;;;;16.56;84.79;95454.88;5016195;28;20238;-73
2023/05/19 06:32:17;;;;;;;13.57;8.40;;;;;;;16.55;85.63;95450.63;5030797;28;20310;-73
2023/05/19 06:34:42;;;;;;;13.77;8.13;;;;;;;16.55;85.23;95454.06;5037115;28;20659;-73
2023/05/19 06:37:08;;;;;;;14.40;8.37;;;;;;;16.47;83.96;95451.72;5026194;28;20345;-74
2023/05/19 06:39:33;;;;;;;13.90;7.93;;;;;;;16.50;83.37;95447.81;5017346;28;20276;-73
2023/05/19 06:41:59;;;;;;;13.83;8.27;;;;;;;16.63;84.49;95445.03;5039736;28;20291;-73
2023/05/19 06:44:25;;;;;;;14.13;8.13;;;;;;;16.68;83.39;95450.44;5046123;28;20214;-73
2023/05/19 06:46:50;;;;;;;14.00;7.77;;;;;;;16.67;82.32;95449.63;5020157;28;20680;-73
2023/05/19 06:49:16;;;;;;;13.23;7.50;;;;;;;16.74;82.88;95458.28;5038180;28;20380;-83
2023/05/19 06:51:41;;;;;;;13.33;7.57;;;;;;;16.77;82.71;95460.47;5031363;28;20234;-82
2023/05/19 06:54:09;;;;;;;12.30;7.70;;;;;;;16.61;84.82;95457.66;5024648;28;20229;-84
2023/05/19 06:56:35;;;;;;;11.37;7.30;;;;;;;16.69;84.95;95466.06;5023526;28;20230;-73
2023/05/19 06:59:00;;;;;;;13.60;6.97;;;;;;;16.64;83.31;95467.78;5019606;28;20226;-72
2023/05/19 07:01:26;;;;;;;13.33;7.20;;;;;;;16.76;82.46;95458.06;5034405;28;20233;-73
2023/05/19 07:03:51;;;;;;;12.13;7.30;;;;;;;16.77;86.12;95462.31;5013323;28;20257;-74
2023/05/19 07:06:17;;;;;;;11.10;7.00;;;;;;;16.72;82.35;95465.63;5013521;28;20249;-74
2023/05/19 07:08:42;;;;;;;11.93;6.53;;;;;;;16.70;83.00;95465.06;5034290;28;20226;-72
2023/05/19 07:11:08;;;;;;;11.63;6.83;;;;;;;16.68;82.58;95464.47;5028989;28;20237;-71
2023/05/19 07:13:33;;;;;;;11.80;7.10;;;;;;;16.80;81.87;95461.88;5024410;28;20237;-73
2023/05/19 07:15:59;;;;;;;17.07;7.03;;;;;;;16.77;80.43;95472.88;5036494;28;20230;-73
2023/05/19 07:18:24;;;;;;;12.60;7.50;;;;;;;16.80;79.86;95469.81;5032364;28;20260;-72
2023/05/19 07:20:53;;;;;;;12.57;7.30;;;;;;;16.71;81.91;95466.69;5027977;28;20256;-71
2023/05/19 07:23:18;;;;;;;15.77;8.63;;;;;;;16.93;84.31;95471.47;4991619;28;20219;-73
2023/05/19 07:25:44;;;;;;;15.43;7.83;;;;;;;16.86;80.99;95473.41;5025182;28;20244;-73
2023/05/19 07:28:09;;;;;;;13.37;8.17;;;;;;;17.11;83.76;95469.56;5030494;28;20283;-71
2023/05/19 07:30:35;;;;;;;11.03;6.90;;;;;;;17.20;80.61;95476.13;5028936;28;20240;-72
2023/05/19 07:33:00;;;;;;;13.83;7.30;;;;;;;17.35;80.97;95467.78;5029103;28;20237;-72
2023/05/19 07:35:26;;;;;;;12.53;7.57;;;;;;;17.44;81.68;95469.03;5008641;28;20230;-74
2023/05/19 07:37:51;;;;;;;13.30;7.90;;;;;;;17.53;80.91;95467.69;5024591;28;20234;-73
2023/05/19 07:40:17;;;;;;;13.20;7.47;;;;;;;17.26;79.02;95471.78;5024482;28;20237;-72
2023/05/19 07:42:43;;;;;;;13.83;8.07;;;;;;;17.06;82.26;95466.78;5032774;28;20228;-73
2023/05/19 07:45:09;;;;;;;15.83;8.03;;;;;;;17.14;78.97;95466.47;5030265;28;20225;-73
2023/05/19 07:47:35;;;;;;;12.10;7.67;;;;;;;17.41;83.49;95472.94;5015851;28;20264;-74
2023/05/19 07:50:00;;;;;;;16.90;8.40;;;;;;;17.66;81.12;95471.97;5028119;28;21143;-73
2023/05/19 07:52:26;;;;;;;15.50;8.00;;;;;;;17.66;80.05;95470.16;5024875;28;20229;-74
2023/05/19 07:54:51;;;;;;;15.53;8.20;;;;;;;17.68;80.91;95472.56;5022057;28;20407;-74
2023/05/19 07:57:17;;;;;;;17.37;8.73;;;;;;;17.67;81.39;95468.31;5028372;28;20238;-73
2023/05/19 07:59:43;;;;;;;13.83;8.33;;;;;;;17.55;80.56;95465.66;5017372;28;20245;-72
2023/05/19 08:02:08;;;;;;;15.73;8.27;;;;;;;17.54;80.62;95465.88;5040834;28;20290;-73
2023/05/19 08:04:34;;;;;;;11.77;7.80;;;;;;;17.72;81.33;95463.91;5031204;28;20241;-73
2023/05/19 08:06:59;;;;;;;14.23;8.50;;;;;;;17.86;80.63;95467.16;5026838;28;20218;-72
2023/05/19 08:09:25;;;;;;;13.73;8.37;;;;;;;17.85;79.09;95473.47;5021436;28;20257;-72
2023/05/19 08:11:50;;;;;;;15.53;8.70;;;;;;;17.89;75.05;95470.13;5033946;28;20222;-72
2023/05/19 08:14:16;;;;;;;16.70;9.00;;;;;;;18.05;77.03;95468.66;5025822;28;20233;-72
2023/05/19 08:16:42;;;;;;;15.90;8.27;;;;;;;17.94;77.70;95461.50;5029201;28;20605;-72
2023/05/19 08:19:08;;;;;;;14.53;8.73;;;;;;;18.29;76.62;95472.88;5028682;28;20226;-72
2023/05/19 08:21:34;;;;;;;13.57;8.80;;;;;;;18.36;75.28;95470.09;5032981;28;20282;-72
2023/05/19 08:24:00;;;;;;;16.83;8.63;;;;;;;18.05;78.07;95473.94;5016683;28;20240;-72
2023/05/19 08:26:26;;;;;;;17.97;8.70;;;;;;;18.17;78.73;95474.72;5018635;28;20308;-73
2023/05/19 08:28:52;;;;;;;18.40;9.57;;;;;;;18.39;78.04;95464.31;5031068;28;21109;-73
2023/05/19 08:31:17;;;;;;;15.60;9.03;;;;;;;18.54;77.47;95459.34;5008835;28;20265;-71
2023/05/19 08:33:43;;;;;;;18.20;8.93;;;;;;;18.72;77.18;95462.63;5027847;28;20321;-73
2023/05/19 08:36:08;;;;;;;16.67;8.87;;;;;;;18.75;76.05;95462.16;5035232;28;20726;-72
2023/05/19 08:38:34;;;;;;;19.00;9.33;;;;;;;18.91;77.18;95463.25;5032373;28;20260;-72
2023/05/19 08:41:00;;;;;;;15.37;9.00;;;;;;;19.07;78.29;95459.00;5029861;28;20640;-71
2023/05/19 08:43:25;;;;;;;18.30;9.00;;;;;;;19.27;75.85;95467.34;5031962;28;20218;-72
2023/05/19 08:45:52;;;;;;;15.13;9.03;;;;;;;19.13;73.01;95466.81;5035808;28;20268;-71
2023/05/19 08:48:18;;;;;;;14.23;8.77;;;;;;;19.35;75.50;95469.56;5029354;28;20710;-71
2023/05/19 08:50:48;;;;;;;16.70;9.73;;;;;;;19.52;74.22;95459.00;5030326;28;20276;-72
2023/05/19 08:53:24;;;;;;;16.37;9.40;;;;;;;19.51;74.42;95466.19;5012997;28;20230;-71
2023/05/19 08:56:09;;;;;;;18.97;9.73;;;;;;;19.31;71.51;95466.63;5016118;28;20265;-70
2023/05/19 08:58:34;;;;;;;13.57;8.87;;;;;;;19.36;72.95;95463.28;5021323;28;20287;-72
2023/05/19 09:01:00;;;;;;;14.60;9.27;;;;;;;19.45;73.40;95461.81;5025084;28;21159;-71
2023/05/19 09:03:27;;;;;;;16.37;9.10;;;;;;;18.97;75.17;95458.81;5034899;28;20777;-79
2023/05/19 09:05:53;;;;;;;21.27;9.80;;;;;;;18.97;75.08;95449.03;5017925;28;20237;-78
2023/05/19 09:08:18;;;;;;;17.43;9.47;;;;;;;19.13;74.06;95461.50;5023908;28;21098;-78
2023/05/19 09:10:44;;;;;;;15.73;9.63;;;;;;;19.18;73.40;95450.16;5030530;28;20260;-79
2023/05/19 09:13:09;;;;;;;20.57;9.63;;;;;;;19.50;73.83;95443.31;5015806;28;20577;-78
2023/05/19 09:15:35;;;;;;;18.13;9.67;;;;;;;19.54;74.40;95439.13;4995936;28;20233;-80
2023/05/19 09:18:08;;;;;;;17.37;9.80;;;;;;;19.77;73.59;95431.00;5028189;28;20218;-79
2023/05/19 09:20:40;;;;;;;15.00;9.27;;;;;;;19.85;72.98;95440.38;5006451;28;20223;-80
2023/05/19 09:23:07;;;;;;;14.13;9.57;;;;;;;19.88;73.60;95442.56;5017170;28;20270;-80
2023/05/19 09:25:32;;;;;;;17.70;9.87;;;;;;;19.96;71.28;95432.31;5021726;28;20250;-71
2023/05/19 09:27:58;;;;;;;19.77;9.93;;;;;;;20.09;72.46;95433.81;5012166;28;20233;-71
2023/05/19 09:30:23;;;;;;;17.20;10.10;;;;;;;20.01;69.97;95427.06;5008208;28;20277;-71
2023/05/19 09:32:49;;;;;;;18.30;10.10;;;;;;;20.18;71.52;95429.66;5025162;28;20318;-72
2023/05/19 09:35:20;;;;;;;17.40;9.67;;;;;;;20.44;71.48;95428.19;5029640;28;20234;-71
2023/05/19 09:37:45;;;;;;;16.73;10.20;;;;;;;20.50;72.81;95425.31;5029639;28;20327;-72
2023/05/19 09:40:14;;;;;;;16.80;10.20;;;;;;;20.56;71.68;95428.84;5031736;28;20254;-72
2023/05/19 09:42:40;;;;;;;19.63;10.03;;;;;;;20.71;73.60;95426.34;5010649;28;20346;-73
2023/05/19 09:45:06;;;;;;;20.27;10.30;;;;;;;20.87;69.57;95427.31;5012199;28;20349;-71
2023/05/19 09:47:39;;;;;;;17.97;10.70;;;;;;;20.93;68.75;95429.78;4992390;28;20255;-71
2023/05/19 09:50:06;;;;;;;15.83;9.97;;;;;;;20.99;69.09;95423.47;5019855;28;21311;-71
2023/05/19 09:52:37;;;;;;;16.80;9.93;;;;;;;20.86;69.16;95423.84;4997136;28;20234;-72
2023/05/19 09:55:05;;;;;;;17.70;9.67;;;;;;;21.09;68.87;95420.91;5014155;28;20264;-72
2023/05/19 09:57:36;;;;;;;16.93;10.23;;;;;;;21.26;70.19;95423.44;5018788;28;20233;-71
2023/05/19 10:00:11;;;;;;;15.30;10.27;;;;;;;21.21;66.22;95421.56;5039985;28;20271;-72
2023/05/19 10:02:40;;;;;;;15.67;9.70;;;;;;;21.07;66.07;95420.34;5030690;28;20712;-71
2023/05/19 10:05:05;;;;;;;22.57;9.90;;;;;;;21.18;65.45;95421.28;5019032;28;20233;-71
2023/05/19 10:07:31;;;;;;;18.60;10.47;;;;;;;21.17;64.97;95417.78;5031693;28;20236;-71
2023/05/19 10:09:57;;;;;;;17.07;10.23;;;;;;;21.06;64.51;95416.09;5009042;28;20252;-72
2023/05/19 10:12:23;;;;;;;19.03;10.77;;;;;;;21.15;67.93;95408.44;5039056;28;20234;-73
2023/05/19 10:14:48;;;;;;;19.87;10.40;;;;;;;21.30;66.20;95405.94;5029914;28;20241;-72
2023/05/19 10:17:14;;;;;;;17.40;9.93;;;;;;;21.33;64.69;95408.88;5029889;28;20234;-72
2023/05/19 10:19:39;;;;;;;17.57;9.40;;;;;;;21.27;63.15;95415.22;5028768;28;20252;-72
2023/05/19 10:22:05;;;;;;;16.83;9.97;;;;;;;21.48;66.55;95405.53;5013767;28;20226;-73
2023/05/19 10:24:30;;;;;;;17.83;10.47;;;;;;;21.74;67.27;95404.63;5021014;28;20258;-73
2023/05/19 10:27:04;;;;;;;19.90;10.60;;;;;;;21.62;64.51;95403.22;5034690;28;20327;-76
2023/05/19 10:29:32;;;;;;;16.07;10.33;;;;;;;21.77;65.56;95400.66;5019468;28;20225;-76
2023/05/19 10:31:59;;;;;;;17.83;10.20;;;;;;;21.83;63.50;95399.66;5011742;28;20226;-77
2023/05/19 10:34:53;;;;;;;21.20;10.37;;;;;;;21.78;63.52;95397.72;5011804;28;20323;-77
2023/05/19 10:37:44;;;;;;;17.10;9.97;;;;;;;22.07;62.91;95398.19;5032188;28;20726;-76
2023/05/19 10:40:12;;;;;;;14.57;9.57;;;;;;;21.71;61.98;95391.03;5032158;28;20341;-78
2023/05/19 10:42:44;;;;;;;17.60;10.10;;;;;;;21.70;61.42;95394.75;5028874;28;20225;-79
2023/05/19 10:45:15;;;;;;;21.00;9.60;;;;;;;21.96;62.88;95397.34;5026785;28;20264;-79
2023/05/19 10:47:40;;;;;;;15.70;9.57;;;;;;;22.17;60.08;95400.91;5005382;28;21014;-78
2023/05/19 10:50:07;;;;;;;16.53;10.50;;;;;;;22.11;61.51;95392.06;5030316;28;20229;-78
2023/05/19 10:52:36;;;;;;;17.00;9.73;;;;;;;22.25;61.80;95395.09;5039321;28;20316;-77
2023/05/19 10:55:02;;;;;;;19.30;9.93;;;;;;;22.07;62.27;95391.00;5033383;28;20230;-79
2023/05/19 10:57:29;;;;;;;13.47;9.30;;;;;;;21.60;57.47;95382.16;5034195;28;20257;-80
2023/05/19 10:59:56;;;;;;;14.27;8.90;;;;;;;21.93;58.75;95383.72;5014659;28;20289;-78
2023/05/19 11:02:38;;;;;;;15.20;9.40;;;;;;;22.11;59.08;95385.97;5010269;28;20327;-77
2023/05/19 11:05:13;;;;;;;16.30;9.47;;;;;;;22.32;59.38;95374.31;5036459;28;20245;-77
2023/05/19 11:07:41;;;;;;;14.60;9.50;;;;;;;22.23;59.46;95383.88;5011533;28;20229;-78
2023/05/19 11:10:07;;;;;;;16.03;9.73;;;;;;;22.10;55.58;95389.69;5031697;28;20339;-77
2023/05/19 11:12:43;;;;;;;15.45;9.30;;;;;;;22.28;59.45;95375.91;5013394;28;20234;-77
2023/05/19 11:15:15;;;;;;;17.03;9.97;;;;;;;22.39;56.23;95382.06;5030829;28;20241;-77
2023/05/19 11:17:41;;;;;;;14.15;9.40;;;;;;;22.47;57.68;95386.91;5024736;28;20280;-78
2023/05/19 11:20:23;;;;;;;15.40;9.48;;;;;;;22.23;53.67;95377.75;5025608;28;20317;-79